createdAt,value
2019-02-04T00:01:42.513Z,99.90
2019-02-04T00:04:08.876Z,99.90
2019-02-04T00:06:35.246Z,99.90
2019-02-04T00:09:01.560Z,99.90
2019-02-04T00:11:28.141Z,99.90
2019-02-04T00:13:54.601Z,99.90
2019-02-04T00:16:21.103Z,99.90
2019-02-04T00:18:47.576Z,99.90
2019-02-04T00:21:14.169Z,99.90
2019-02-04T00:23:40.428Z,99.90
2019-02-04T00:26:06.785Z,99.90
2019-02-04T00:28:33.165Z,99.90
2019-02-04T00:30:59.542Z,99.90
2019-02-04T00:33:25.912Z,99.90
2019-02-04T00:35:52.592Z,99.90
2019-02-04T00:38:18.967Z,99.90
2019-02-04T00:40:45.376Z,99.90
2019-02-04T00:43:11.845Z,99.90
2019-02-04T00:45:38.131Z,99.90
2019-02-04T00:48:04.517Z,99.90
2019-02-04T00:50:30.871Z,99.90
2019-02-04T00:52:57.183Z,99.90
2019-02-04T00:55:23.739Z,99.90
2019-02-04T00:57:50.190Z,99.90
2019-02-04T01:00:20.294Z,99.90
2019-02-04T01:02:46.771Z,99.90
2019-02-04T01:05:16.833Z,99.90
2019-02-04T01:07:43.320Z,99.90
2019-02-04T01:10:13.384Z,99.90
2019-02-04T01:12:39.684Z,99.90
2019-02-04T01:15:06.136Z,99.90
2019-02-04T01:17:32.495Z,99.90
2019-02-04T01:19:58.896Z,99.90
2019-02-04T01:22:25.248Z,99.90
2019-02-04T01:24:51.630Z,99.90
2019-02-04T01:27:18.228Z,99.90
2019-02-04T01:29:44.691Z,99.90
2019-02-04T01:32:11.084Z,99.90
2019-02-04T01:34:37.436Z,99.90
2019-02-04T01:37:03.956Z,99.90
2019-02-04T01:39:30.217Z,99.90
2019-02-04T01:41:56.576Z,99.90
2019-02-04T01:44:22.846Z,99.90
2019-02-04T01:46:51.577Z,99.90
2019-02-04T01:49:17.485Z,99.90
2019-02-04T01:51:43.739Z,99.90
2019-02-04T01:54:10.029Z,99.90
2019-02-04T01:56:36.396Z,99.90
2019-02-04T01:59:02.842Z,99.90
2019-02-04T02:01:29.138Z,99.90
2019-02-04T02:03:55.391Z,99.90
2019-02-04T02:06:21.968Z,99.90
2019-02-04T02:08:48.255Z,99.90
2019-02-04T02:11:14.528Z,99.90
2019-02-04T02:13:40.881Z,99.90
2019-02-04T02:16:07.247Z,99.90
2019-02-04T02:18:33.520Z,99.90
2019-02-04T02:20:59.788Z,99.90
2019-02-04T02:23:26.555Z,99.90
2019-02-04T02:25:52.936Z,99.90
2019-02-04T02:28:19.187Z,99.90
2019-02-04T02:30:45.572Z,99.90
2019-02-04T02:33:11.837Z,99.90
2019-02-04T02:35:38.141Z,99.90
2019-02-04T02:38:04.613Z,99.90
2019-02-04T02:40:31.913Z,99.90
2019-02-04T02:42:58.845Z,99.90
2019-02-04T02:45:25.323Z,99.90
2019-02-04T02:47:51.576Z,99.90
2019-02-04T02:50:18.165Z,99.90
2019-02-04T02:52:44.655Z,99.90
2019-02-04T02:55:14.287Z,99.90
2019-02-04T02:57:40.716Z,99.90
2019-02-04T03:00:10.774Z,99.90
2019-02-04T03:02:37.220Z,99.90
2019-02-04T03:05:06.924Z,99.90
2019-02-04T03:07:33.205Z,99.90
2019-02-04T03:09:59.504Z,99.90
2019-02-04T03:12:25.860Z,99.90
2019-02-04T03:14:52.145Z,99.90
2019-02-04T03:17:18.901Z,99.90
2019-02-04T03:19:45.163Z,99.90
2019-02-04T03:22:11.532Z,99.90
2019-02-04T03:24:37.837Z,99.90
2019-02-04T03:27:04.194Z,99.90
2019-02-04T03:29:30.438Z,99.90
2019-02-04T03:31:56.706Z,99.90
2019-02-04T03:34:23.094Z,99.90
2019-02-04T03:36:49.660Z,99.90
2019-02-04T03:39:16.062Z,99.90
2019-02-04T03:41:42.423Z,99.90
2019-02-04T03:44:08.783Z,99.90
2019-02-04T03:46:35.153Z,99.90
2019-02-04T03:49:01.630Z,99.90
2019-02-04T03:51:27.982Z,99.90
2019-02-04T03:53:54.368Z,99.90
2019-02-04T03:56:20.746Z,99.90
2019-02-04T03:58:47.132Z,99.90
2019-02-04T04:01:13.412Z,99.90
2019-02-04T04:03:39.873Z,99.90
2019-02-04T04:06:06.261Z,99.90
2019-02-04T04:08:32.657Z,99.90
2019-02-04T04:10:59.021Z,99.90
2019-02-04T04:13:25.572Z,99.90
2019-02-04T04:15:51.845Z,99.90
2019-02-04T04:18:18.296Z,99.90
2019-02-04T04:20:44.856Z,99.90
2019-02-04T04:23:11.257Z,99.90
2019-02-04T04:25:37.611Z,99.90
2019-02-04T04:28:03.977Z,99.90
2019-02-04T04:30:30.440Z,99.90
2019-02-04T04:32:57.135Z,99.90
2019-02-04T04:35:23.857Z,99.90
2019-02-04T04:37:50.356Z,99.90
2019-02-04T04:40:16.808Z,99.90
2019-02-04T04:42:43.479Z,99.90
2019-02-04T04:45:18.228Z,99.90
2019-02-04T04:47:44.475Z,99.90
2019-02-04T04:50:11.166Z,99.90
2019-02-04T04:52:37.537Z,99.90
2019-02-04T04:55:10.499Z,99.90
2019-02-04T04:57:36.870Z,99.90
2019-02-04T05:00:06.933Z,99.90
2019-02-04T05:02:33.220Z,99.90
2019-02-04T05:04:59.674Z,99.90
2019-02-04T05:07:25.955Z,99.90
2019-02-04T05:09:52.233Z,99.90
2019-02-04T05:12:18.593Z,99.90
2019-02-04T05:14:44.868Z,99.90
2019-02-04T05:17:11.153Z,99.90
2019-02-04T05:19:37.425Z,99.90
2019-02-04T05:22:03.917Z,99.90
2019-02-04T05:24:30.245Z,99.90
2019-02-04T05:26:56.500Z,99.90
2019-02-04T05:29:22.785Z,99.90
2019-02-04T05:31:49.037Z,99.90
2019-02-04T05:34:15.335Z,99.90
2019-02-04T05:36:41.699Z,99.90
2019-02-04T05:39:08.232Z,99.90
2019-02-04T05:41:34.880Z,99.90
2019-02-04T05:44:01.221Z,99.90
2019-02-04T05:46:27.499Z,99.90
2019-02-04T05:48:53.774Z,99.90
2019-02-04T05:51:20.066Z,99.90
2019-02-04T05:53:46.448Z,99.90
2019-02-04T05:56:12.708Z,99.90
2019-02-04T05:58:39.051Z,99.90
2019-02-04T06:01:05.836Z,99.90
2019-02-04T06:03:32.093Z,99.90
2019-02-04T06:05:58.475Z,99.90
2019-02-04T06:08:24.771Z,99.90
2019-02-04T06:10:51.049Z,99.90
2019-02-04T06:13:17.316Z,99.90
2019-02-04T06:15:43.581Z,99.90
2019-02-04T06:18:09.960Z,99.90
2019-02-04T06:20:36.611Z,99.80
2019-02-04T06:23:03.081Z,99.90
2019-02-04T06:25:29.394Z,99.90
2019-02-04T06:27:55.753Z,99.90
2019-02-04T06:30:22.217Z,99.90
2019-02-04T06:32:48.612Z,99.90
2019-02-04T06:35:16.704Z,99.90
2019-02-04T06:37:43.580Z,99.90
2019-02-04T06:40:12.144Z,99.90
2019-02-04T06:42:38.621Z,99.90
2019-02-04T06:45:08.581Z,99.90
2019-02-04T06:47:35.039Z,99.90
2019-02-04T06:50:01.537Z,99.90
2019-02-04T06:52:27.828Z,99.90
2019-02-04T06:54:54.683Z,99.90
2019-02-04T06:57:21.097Z,99.90
2019-02-04T06:59:47.500Z,99.90
2019-02-04T07:02:13.865Z,99.90
2019-02-04T07:04:40.184Z,99.90
2019-02-04T07:07:06.579Z,99.90
2019-02-04T07:09:33.027Z,99.90
2019-02-04T07:11:59.427Z,99.90
2019-02-04T07:14:26.256Z,99.90
2019-02-04T07:16:52.588Z,99.90
2019-02-04T07:19:24.540Z,99.90
2019-02-04T07:21:47.064Z,99.90
2019-02-04T07:24:42.481Z,99.90
2019-02-04T07:27:01.289Z,99.90
2019-02-04T07:29:27.531Z,99.90
2019-02-04T07:31:53.926Z,99.90
2019-02-04T07:34:20.337Z,99.90
2019-02-04T07:36:46.636Z,99.90
2019-02-04T07:39:12.912Z,99.90
2019-02-04T07:41:39.280Z,99.90
2019-02-04T07:44:05.750Z,99.90
2019-02-04T07:46:32.335Z,99.90
2019-02-04T07:48:58.707Z,99.90
2019-02-04T07:51:24.980Z,99.90
2019-02-04T07:53:51.360Z,99.90
2019-02-04T07:56:17.645Z,99.90
2019-02-04T07:58:44.012Z,99.90
2019-02-04T08:01:10.391Z,99.90
2019-02-04T08:03:36.857Z,99.90
2019-02-04T08:06:03.308Z,99.90
2019-02-04T08:08:31.900Z,99.90
2019-02-04T08:10:57.864Z,99.90
2019-02-04T08:13:24.236Z,99.90
2019-02-04T08:15:50.603Z,99.90
2019-02-04T08:18:16.974Z,99.90
2019-02-04T08:20:43.457Z,99.90
2019-02-04T08:23:10.028Z,99.90
2019-02-04T08:25:36.673Z,99.90
2019-02-04T08:28:03.163Z,99.90
2019-02-04T08:30:34.323Z,99.90
2019-02-04T08:33:00.800Z,99.90
2019-02-04T08:35:27.510Z,99.90
2019-02-04T08:37:53.972Z,99.90
2019-02-04T08:40:20.352Z,99.90
2019-02-04T08:42:46.726Z,99.90
2019-02-04T08:45:13.765Z,99.90
2019-02-04T08:47:40.249Z,99.90
2019-02-04T08:50:10.214Z,99.90
2019-02-04T08:52:36.474Z,99.90
2019-02-04T08:55:04.864Z,99.90
2019-02-04T08:57:31.353Z,99.90
2019-02-04T08:59:57.711Z,99.90
2019-02-04T09:02:24.394Z,99.90
2019-02-04T09:04:50.676Z,99.90
2019-02-04T09:07:16.944Z,99.90
2019-02-04T09:09:43.324Z,99.90
2019-02-04T09:12:11.190Z,99.90
2019-02-04T09:14:37.584Z,99.90
2019-02-04T09:17:03.961Z,99.90
2019-02-04T09:19:30.227Z,99.90
2019-02-04T09:21:56.478Z,99.90
2019-02-04T09:24:23.259Z,99.90
2019-02-04T09:26:49.526Z,99.90
2019-02-04T09:29:15.773Z,99.90
2019-02-04T09:31:42.077Z,99.90
2019-02-04T09:34:08.471Z,99.90
2019-02-04T09:36:35.017Z,99.90
2019-02-04T09:39:01.335Z,99.90
2019-02-04T09:41:27.799Z,99.90
2019-02-04T09:43:54.483Z,99.90
2019-02-04T09:46:20.846Z,99.90
2019-02-04T09:48:47.136Z,99.90
2019-02-04T09:51:13.397Z,99.90
2019-02-04T09:53:39.653Z,99.90
2019-02-04T09:56:06.038Z,99.90
2019-02-04T09:58:32.389Z,99.90
2019-02-04T10:00:58.910Z,99.90
2019-02-04T10:03:25.768Z,99.90
2019-02-04T10:05:52.125Z,99.90
2019-02-04T10:08:18.516Z,99.90
2019-02-04T10:10:44.887Z,99.90
2019-02-04T10:13:11.336Z,99.90
2019-02-04T10:15:45.668Z,99.90
2019-02-04T10:18:11.512Z,99.90
2019-02-04T10:20:38.151Z,99.90
2019-02-04T10:23:05.293Z,99.90
2019-02-04T10:25:34.947Z,99.90
2019-02-04T10:28:01.660Z,99.90
2019-02-04T10:30:28.188Z,99.90
2019-02-04T10:32:54.663Z,99.90
2019-02-04T10:35:21.116Z,99.90
2019-02-04T10:37:49.616Z,99.90
2019-02-04T10:40:19.179Z,99.90
2019-02-04T10:42:45.659Z,99.90
2019-02-04T10:45:13.808Z,99.90
2019-02-04T10:47:40.220Z,99.90
2019-02-04T10:50:21.867Z,99.90
2019-02-04T10:52:48.135Z,99.90
2019-02-04T10:55:14.589Z,99.90
2019-02-04T10:57:41.078Z,99.90
2019-02-04T11:00:11.335Z,99.90
2019-02-04T11:02:37.835Z,99.90
2019-02-04T11:05:07.483Z,99.90
2019-02-04T11:07:34.261Z,99.90
2019-02-04T11:10:00.763Z,99.90
2019-02-04T11:12:27.127Z,99.90
2019-02-04T11:14:53.417Z,99.90
2019-02-04T11:17:19.742Z,99.90
2019-02-04T11:19:45.997Z,99.90
2019-02-04T11:22:12.533Z,99.90
2019-02-04T11:24:38.833Z,99.90
2019-02-04T11:27:05.738Z,99.90
2019-02-04T11:29:32.201Z,99.90
2019-02-04T11:31:58.683Z,99.90
2019-02-04T11:34:24.933Z,99.90
2019-02-04T11:36:51.522Z,99.90
2019-02-04T11:39:17.784Z,99.90
2019-02-04T11:41:44.029Z,99.90
2019-02-04T11:44:10.353Z,99.90
2019-02-04T11:46:36.885Z,99.90
2019-02-04T11:49:03.906Z,99.90
2019-02-04T11:51:30.307Z,99.90
2019-02-04T11:53:56.561Z,99.90
2019-02-04T11:56:23.041Z,99.90
2019-02-04T11:58:49.408Z,99.90
2019-02-04T12:01:15.791Z,99.90
2019-02-04T12:03:42.287Z,99.90
2019-02-04T12:06:08.827Z,99.90
2019-02-04T12:08:35.222Z,99.90
2019-02-04T12:11:03.786Z,99.90
2019-02-04T12:13:30.056Z,99.90
2019-02-04T12:15:56.721Z,99.90
2019-02-04T12:18:23.195Z,99.90
2019-02-04T12:20:49.558Z,99.90
2019-02-04T12:23:16.446Z,99.90
2019-02-04T12:25:42.809Z,99.90
2019-02-04T12:28:09.273Z,99.90
2019-02-04T12:30:40.871Z,99.90
2019-02-04T12:33:09.247Z,99.90
2019-02-04T12:35:35.668Z,99.90
2019-02-04T12:38:02.136Z,99.90
2019-02-04T12:40:28.973Z,99.90
2019-02-04T12:42:55.469Z,99.90
2019-02-04T12:45:24.924Z,99.90
2019-02-04T12:47:51.510Z,99.90
2019-02-04T12:50:17.949Z,99.90
2019-02-04T12:52:44.325Z,99.90
2019-02-04T12:55:22.405Z,99.90
2019-02-04T12:57:48.883Z,99.90
2019-02-04T13:00:20.861Z,99.90
2019-02-04T13:02:47.322Z,99.90
2019-02-04T13:05:17.176Z,99.90
2019-02-04T13:07:43.605Z,99.90
2019-02-04T13:10:13.152Z,99.90
2019-02-04T13:12:39.944Z,99.70
2019-02-04T13:15:15.814Z,99.00
2019-02-04T13:17:42.204Z,99.50
2019-02-04T13:20:11.981Z,99.80
2019-02-04T13:22:38.337Z,99.60
2019-02-04T13:25:08.424Z,99.60
2019-02-04T13:27:34.910Z,99.50
2019-02-04T13:30:01.355Z,99.50
2019-02-04T13:32:27.639Z,99.90
2019-02-04T13:34:54.006Z,99.90
2019-02-04T13:37:20.455Z,99.90
2019-02-04T13:39:46.836Z,99.90
2019-02-04T13:42:13.180Z,99.90
2019-02-04T13:44:39.585Z,99.20
2019-02-04T13:47:06.005Z,99.40
2019-02-04T13:49:32.212Z,99.50
2019-02-04T13:51:58.584Z,99.60
2019-02-04T13:54:25.045Z,99.50
2019-02-04T13:56:51.394Z,99.90
2019-02-04T13:59:17.689Z,99.60
2019-02-04T14:01:44.049Z,99.90
2019-02-04T14:04:10.604Z,99.90
2019-02-04T14:06:36.981Z,99.90
2019-02-04T14:09:07.199Z,99.90
2019-02-04T14:11:33.440Z,99.90
2019-02-04T14:13:59.789Z,99.90
2019-02-04T14:16:26.151Z,99.90
2019-02-04T14:18:52.436Z,99.80
2019-02-04T14:21:19.295Z,99.70
2019-02-04T14:23:45.535Z,99.70
2019-02-04T14:26:11.919Z,99.50
2019-02-04T14:28:38.347Z,98.90
2019-02-04T14:31:04.760Z,98.40
2019-02-04T14:33:31.049Z,97.70
2019-02-04T14:35:57.395Z,97.60
2019-02-04T14:38:23.852Z,97.30
2019-02-04T14:40:50.432Z,97.30
2019-02-04T14:43:20.480Z,97.10
2019-02-04T14:45:53.529Z,96.60
2019-02-04T14:48:41.815Z,95.00
2019-02-04T14:51:18.191Z,95.10
2019-02-04T14:54:00.677Z,93.60
2019-02-04T14:56:42.596Z,94.30
2019-02-04T14:59:18.021Z,93.70
2019-02-04T15:02:04.898Z,93.40
2019-02-04T15:04:40.419Z,92.20
2019-02-04T15:07:33.317Z,93.00
2019-02-04T15:10:12.415Z,93.10
2019-02-04T15:13:10.328Z,93.30
2019-02-04T15:15:43.368Z,92.90
2019-02-04T15:18:28.207Z,92.60
2019-02-04T15:21:16.700Z,92.20
2019-02-04T15:23:49.786Z,92.40
2019-02-04T15:26:25.884Z,92.30
2019-02-04T15:29:04.797Z,92.20
2019-02-04T15:31:51.389Z,92.00
2019-02-04T15:34:39.240Z,91.60
2019-02-04T15:37:15.589Z,91.60
2019-02-04T15:39:54.700Z,91.30
2019-02-04T15:42:56.674Z,90.90
2019-02-04T15:45:47.576Z,91.10
2019-02-04T15:48:16.560Z,91.10
2019-02-04T15:50:58.583Z,91.10
2019-02-04T15:53:24.968Z,91.30
2019-02-04T15:55:51.448Z,91.20
2019-02-04T15:58:17.980Z,91.40
2019-02-04T16:00:44.878Z,91.90
2019-02-04T16:03:11.194Z,92.20
2019-02-04T16:05:37.487Z,92.30
2019-02-04T16:08:03.940Z,92.70
2019-02-04T16:10:30.224Z,92.40
2019-02-04T16:12:57.502Z,92.50
2019-02-04T16:15:23.761Z,92.70
2019-02-04T16:17:50.253Z,92.90
2019-02-04T16:20:20.016Z,92.90
2019-02-04T16:22:57.958Z,93.00
2019-02-04T16:25:15.176Z,93.40
2019-02-04T16:27:41.524Z,93.30
2019-02-04T16:30:13.951Z,93.90
2019-02-04T16:32:40.429Z,94.20
2019-02-04T16:35:09.824Z,94.30
2019-02-04T16:37:36.171Z,94.50
2019-02-04T16:40:05.362Z,94.10
2019-02-04T16:42:31.768Z,94.10
2019-02-04T16:44:58.462Z,94.10
2019-02-04T16:47:24.701Z,93.90
2019-02-04T16:49:51.293Z,94.60
2019-02-04T16:52:17.690Z,94.00
2019-02-04T16:54:44.283Z,93.00
2019-02-04T16:57:10.560Z,93.00
2019-02-04T16:59:37.026Z,94.10
2019-02-04T17:02:03.508Z,94.30
2019-02-04T17:04:29.809Z,94.90
2019-02-04T17:06:56.112Z,95.20
2019-02-04T17:09:22.493Z,94.70
2019-02-04T17:11:49.023Z,95.00
2019-02-04T17:14:15.803Z,95.20
2019-02-04T17:16:42.252Z,95.40
2019-02-04T17:19:08.647Z,95.50
2019-02-04T17:21:34.999Z,94.90
2019-02-04T17:24:01.443Z,94.30
2019-02-04T17:26:28.199Z,93.40
2019-02-04T17:29:05.705Z,93.60
2019-02-04T17:31:32.316Z,93.70
2019-02-04T17:33:58.672Z,94.10
2019-02-04T17:36:25.145Z,94.70
2019-02-04T17:38:51.645Z,95.10
2019-02-04T17:41:18.160Z,95.00
2019-02-04T17:43:44.457Z,94.80
2019-02-04T17:46:11.024Z,94.60
2019-02-04T17:48:37.626Z,94.20
2019-02-04T17:51:04.080Z,93.80
2019-02-04T17:53:34.400Z,93.60
2019-02-04T17:55:58.957Z,92.90
2019-02-04T17:58:25.314Z,92.80
2019-02-04T18:00:51.855Z,92.20
2019-02-04T18:03:18.292Z,91.70
2019-02-04T18:05:47.160Z,91.60
2019-02-04T18:08:13.721Z,91.60
2019-02-04T18:10:40.564Z,91.50
2019-02-04T18:13:07.032Z,91.60
2019-02-04T18:15:33.732Z,91.80
2019-02-04T18:18:00.085Z,92.10
2019-02-04T18:20:26.528Z,92.20
2019-02-04T18:22:52.997Z,92.30
2019-02-04T18:25:20.712Z,92.30
2019-02-04T18:27:47.465Z,92.40
2019-02-04T18:30:17.666Z,92.20
2019-02-04T18:32:43.972Z,92.00
2019-02-04T18:35:13.074Z,92.30
2019-02-04T18:37:39.443Z,92.60
2019-02-04T18:40:12.029Z,92.60
2019-02-04T18:42:38.948Z,92.60
2019-02-04T18:45:08.980Z,92.80
2019-02-04T18:47:35.280Z,93.10
2019-02-04T18:50:01.819Z,93.50
2019-02-04T18:52:28.748Z,93.80
2019-02-04T18:54:55.176Z,93.90
2019-02-04T18:57:21.942Z,94.20
2019-02-04T18:59:48.248Z,94.20
2019-02-04T19:02:14.668Z,94.50
2019-02-04T19:04:45.528Z,94.70
2019-02-04T19:07:12.066Z,95.10
2019-02-04T19:09:38.385Z,95.50
2019-02-04T19:12:05.002Z,95.70
2019-02-04T19:14:31.669Z,95.60
2019-02-04T19:16:58.276Z,95.40
2019-02-04T19:19:24.786Z,95.60
2019-02-04T19:21:51.173Z,95.10
2019-02-04T19:24:17.619Z,95.00
2019-02-04T19:26:43.996Z,95.10
2019-02-04T19:29:10.257Z,95.50
2019-02-04T19:31:36.768Z,95.70
2019-02-04T19:34:03.557Z,95.90
2019-02-04T19:36:30.067Z,96.20
2019-02-04T19:38:56.324Z,96.50
2019-02-04T19:41:22.820Z,96.80
2019-02-04T19:43:49.248Z,97.00
2019-02-04T19:46:15.616Z,97.10
2019-02-04T19:48:43.764Z,97.30
2019-02-04T19:51:10.112Z,97.50
2019-02-04T19:53:36.917Z,97.50
2019-02-04T19:56:03.560Z,97.20
2019-02-04T19:58:29.945Z,96.90
2019-02-04T20:00:56.325Z,97.00
2019-02-04T20:03:22.719Z,97.30
2019-02-04T20:05:51.257Z,97.60
2019-02-04T20:08:17.399Z,97.70
2019-02-04T20:10:43.881Z,97.60
2019-02-04T20:13:10.456Z,96.90
2019-02-04T20:15:36.966Z,97.20
2019-02-04T20:18:03.733Z,97.10
2019-02-04T20:20:30.337Z,97.20
2019-02-04T20:22:57.042Z,97.30
2019-02-04T20:25:30.978Z,97.30
2019-02-04T20:27:57.878Z,97.20
2019-02-04T20:30:26.849Z,97.10
2019-02-04T20:32:53.261Z,97.10
2019-02-04T20:35:19.525Z,97.20
2019-02-04T20:37:45.976Z,96.90
2019-02-04T20:40:18.349Z,97.10
2019-02-04T20:42:44.869Z,97.10
2019-02-04T20:45:13.151Z,96.70
2019-02-04T20:47:42.414Z,96.60
2019-02-04T20:50:23.165Z,96.60
2019-02-04T20:52:49.542Z,96.80
2019-02-04T20:55:16.036Z,96.80
2019-02-04T20:57:42.403Z,97.00
2019-02-04T21:00:12.464Z,96.80
2019-02-04T21:02:39.670Z,96.90
2019-02-04T21:05:06.470Z,96.80
2019-02-04T21:07:32.749Z,96.80
2019-02-04T21:09:59.140Z,96.80
2019-02-04T21:12:25.441Z,96.50
2019-02-04T21:14:51.710Z,95.60
2019-02-04T21:17:18.132Z,95.40
2019-02-04T21:19:44.857Z,94.80
2019-02-04T21:22:11.251Z,94.80
2019-02-04T21:24:37.525Z,94.90
2019-02-04T21:27:04.270Z,95.20
2019-02-04T21:29:30.778Z,95.60
2019-02-04T21:31:57.171Z,95.60
2019-02-04T21:34:23.504Z,95.60
2019-02-04T21:36:49.966Z,95.50
2019-02-04T21:39:16.550Z,95.90
2019-02-04T21:41:42.835Z,96.40
2019-02-04T21:44:09.316Z,96.40
2019-02-04T21:46:35.608Z,96.20
2019-02-04T21:49:02.109Z,95.90
2019-02-04T21:51:28.403Z,95.90
2019-02-04T21:53:54.671Z,95.70
2019-02-04T21:56:20.949Z,95.40
2019-02-04T21:58:47.604Z,95.20
2019-02-04T22:01:13.867Z,95.10
2019-02-04T22:03:40.193Z,94.90
2019-02-04T22:06:06.538Z,94.70
2019-02-04T22:08:32.804Z,94.70
2019-02-04T22:10:59.249Z,94.50
2019-02-04T22:13:25.656Z,94.40
2019-02-04T22:15:52.132Z,94.30
2019-02-04T22:18:18.431Z,94.10
2019-02-04T22:20:45.223Z,94.10
2019-02-04T22:23:11.477Z,94.10
2019-02-04T22:25:38.146Z,94.10
2019-02-04T22:28:04.640Z,94.00
2019-02-04T22:30:30.991Z,94.00
2019-02-04T22:32:57.442Z,93.90
2019-02-04T22:35:23.969Z,93.70
2019-02-04T22:37:50.395Z,93.90
2019-02-04T22:40:19.265Z,94.10
2019-02-04T22:42:45.615Z,94.00
2019-02-04T22:45:14.259Z,93.90
2019-02-04T22:47:40.754Z,93.90
2019-02-04T22:50:10.852Z,93.90
2019-02-04T22:52:37.118Z,93.90
2019-02-04T22:55:05.797Z,94.10
2019-02-04T22:57:32.363Z,94.40
2019-02-04T22:59:58.628Z,94.60
2019-02-04T23:02:25.120Z,94.90
2019-02-04T23:04:51.468Z,95.10
2019-02-04T23:07:17.844Z,95.10
2019-02-04T23:09:44.112Z,95.70
2019-02-04T23:12:10.480Z,96.00
2019-02-04T23:14:36.833Z,96.10
2019-02-04T23:17:03.597Z,95.80
2019-02-04T23:19:29.994Z,95.70
2019-02-04T23:21:56.272Z,96.00
2019-02-04T23:24:22.633Z,96.40
2019-02-04T23:26:48.988Z,96.80
2019-02-04T23:29:15.369Z,97.30
2019-02-04T23:31:41.658Z,96.90
2019-02-04T23:34:08.316Z,97.00
2019-02-04T23:36:35.106Z,96.70
2019-02-04T23:39:01.574Z,96.80
2019-02-04T23:41:27.832Z,97.00
2019-02-04T23:43:54.095Z,96.90
2019-02-04T23:46:21.089Z,96.90
2019-02-04T23:48:47.444Z,97.10
2019-02-04T23:51:13.737Z,97.20
2019-02-04T23:53:40.409Z,97.20
2019-02-04T23:56:06.783Z,96.90
2019-02-04T23:58:33.067Z,96.80
